createdAt,value
2019-04-21T00:01:22.364Z,42.90
2019-04-21T00:07:49.071Z,42.80
2019-04-21T00:13:42.750Z,42.90
2019-04-21T00:19:37.159Z,42.80
2019-04-21T00:25:51.477Z,42.80
2019-04-21T00:31:58.887Z,42.80
2019-04-21T00:38:07.868Z,42.80
2019-04-21T00:44:07.075Z,42.70
2019-04-21T00:50:40.609Z,42.60
2019-04-21T00:56:41.020Z,42.60
2019-04-21T01:02:52.524Z,42.60
2019-04-21T01:08:50.710Z,42.60
2019-04-21T01:15:06.585Z,42.50
2019-04-21T01:20:38.772Z,42.60
2019-04-21T01:26:52.519Z,42.60
2019-04-21T01:33:07.695Z,42.50
2019-04-21T01:39:15.006Z,42.50
2019-04-21T01:45:14.631Z,42.50
2019-04-21T01:51:15.780Z,42.70
2019-04-21T01:57:22.907Z,42.50
2019-04-21T02:03:46.659Z,42.40
2019-04-21T02:09:35.641Z,42.40
2019-04-21T02:15:42.012Z,42.40
2019-04-21T02:21:38.308Z,42.40
2019-04-21T02:27:55.086Z,42.40
2019-04-21T02:34:04.486Z,42.30
2019-04-21T02:40:11.240Z,43.00
2019-04-21T02:46:12.575Z,42.30
2019-04-21T02:52:20.172Z,42.20
2019-04-21T02:58:27.122Z,42.30
2019-04-21T03:04:30.238Z,42.20
2019-04-21T03:10:37.600Z,42.20
2019-04-21T03:16:32.946Z,42.10
2019-04-21T03:22:45.665Z,42.20
2019-04-21T03:28:48.049Z,42.10
2019-04-21T03:35:19.406Z,42.10
2019-04-21T03:40:52.845Z,42.10
2019-04-21T03:47:01.686Z,41.90
2019-04-21T03:59:09.957Z,41.90
2019-04-21T04:05:43.862Z,41.90
2019-04-21T04:11:24.814Z,42.00
2019-04-21T04:17:20.258Z,41.70
2019-04-21T04:23:35.640Z,41.90
2019-04-21T04:29:24.596Z,41.80
2019-04-21T04:35:48.969Z,41.80
2019-04-21T04:41:41.997Z,41.70
2019-04-21T04:47:47.857Z,41.80
2019-04-21T04:53:56.162Z,41.80
2019-04-21T05:00:01.842Z,41.70
2019-04-21T05:06:24.061Z,41.80
2019-04-21T05:12:15.883Z,41.80
2019-04-21T05:18:26.612Z,41.70
2019-04-21T05:24:20.229Z,41.50
2019-04-21T05:36:29.003Z,41.60
2019-04-21T05:42:30.234Z,41.40
2019-04-21T05:48:39.667Z,41.50
2019-04-21T05:54:52.680Z,41.50
2019-04-21T06:07:04.350Z,41.50
2019-04-21T06:13:05.609Z,41.60
2019-04-21T06:19:11.489Z,41.60
2019-04-21T06:25:40.977Z,41.00
2019-04-21T06:31:21.596Z,41.40
2019-04-21T06:37:40.524Z,41.60
2019-04-21T06:43:48.154Z,41.70
2019-04-21T06:49:30.373Z,41.70
2019-04-21T06:55:32.370Z,41.80
2019-04-21T07:01:43.822Z,41.80
2019-04-21T07:08:09.834Z,41.90
2019-04-21T07:13:44.118Z,41.90
2019-04-21T07:19:58.814Z,42.00
2019-04-21T07:25:58.076Z,42.10
2019-04-21T07:32:16.512Z,42.10
2019-04-21T07:38:03.004Z,42.00
2019-04-21T07:44:00.275Z,42.10
2019-04-21T07:50:17.772Z,42.10
2019-04-21T07:56:06.525Z,42.20
2019-04-21T08:02:22.196Z,42.20
2019-04-21T08:08:28.142Z,42.20
2019-04-21T08:14:28.602Z,41.70
2019-04-21T08:20:34.677Z,42.60
2019-04-21T08:27:03.249Z,42.50
2019-04-21T08:32:55.934Z,42.50
2019-04-21T08:38:51.480Z,42.50
2019-04-21T08:44:54.385Z,42.40
2019-04-21T08:51:06.567Z,42.40
2019-04-21T08:57:01.198Z,42.30
2019-04-21T09:03:06.486Z,42.20
2019-04-21T09:09:14.722Z,42.30
2019-04-21T09:15:13.861Z,42.90
2019-04-21T09:21:21.887Z,42.40
2019-04-21T09:27:21.835Z,41.90
2019-04-21T09:33:09.352Z,42.20
2019-04-21T09:39:16.576Z,42.10
2019-04-21T09:45:17.719Z,42.00
2019-04-21T09:51:20.579Z,42.00
2019-04-21T09:57:34.718Z,41.90
2019-04-21T10:03:36.165Z,42.50
2019-04-21T10:09:33.362Z,41.90
2019-04-21T10:15:37.685Z,41.90
2019-04-21T10:21:40.559Z,41.90
2019-04-21T10:27:43.287Z,41.90
2019-04-21T10:33:46.290Z,41.80
2019-04-21T10:39:49.610Z,41.90
2019-04-21T10:45:52.828Z,41.80
2019-04-21T10:51:57.074Z,41.70
2019-04-21T10:58:02.281Z,41.70
2019-04-21T11:04:08.722Z,41.80
2019-04-21T11:10:09.970Z,41.90
2019-04-21T11:16:13.092Z,41.90
2019-04-21T11:22:16.767Z,41.80
2019-04-21T11:28:20.666Z,41.70
2019-04-21T11:34:23.588Z,41.70
2019-04-21T11:40:27.699Z,41.70
2019-04-21T11:46:30.789Z,41.70
2019-04-21T11:52:34.756Z,41.60
2019-04-21T11:58:37.576Z,41.40
2019-04-21T12:04:41.275Z,41.40
2019-04-21T12:10:45.109Z,41.40
2019-04-21T12:16:48.754Z,41.50
2019-04-21T12:22:52.843Z,41.60
2019-04-21T12:28:55.892Z,41.60
2019-04-21T12:34:59.787Z,41.60
2019-04-21T12:41:02.655Z,41.70
2019-04-21T12:47:05.873Z,41.70
2019-04-21T12:53:09.536Z,41.70
2019-04-21T12:59:13.355Z,41.80
2019-04-21T13:05:16.093Z,41.90
2019-04-21T13:11:19.201Z,42.00
2019-04-21T13:17:22.030Z,42.20
2019-04-21T13:23:25.063Z,42.30
2019-04-21T13:29:28.183Z,42.20
2019-04-21T13:35:31.115Z,42.30
2019-04-21T13:41:47.509Z,42.30
2019-04-21T13:47:38.721Z,42.40
2019-04-21T13:53:41.920Z,42.30
2019-04-21T13:59:44.735Z,42.20
2019-04-21T14:05:48.615Z,42.30
2019-04-21T14:11:54.115Z,42.20
2019-04-21T14:17:56.921Z,42.20
2019-04-21T14:24:01.252Z,42.10
2019-04-21T14:30:08.404Z,42.00
2019-04-21T14:36:12.760Z,42.30
2019-04-21T14:42:16.026Z,42.30
2019-04-21T14:48:19.091Z,42.20
2019-04-21T14:54:22.549Z,42.30
2019-04-21T15:00:29.046Z,42.30
2019-04-21T15:06:31.863Z,42.50
2019-04-21T15:12:35.847Z,42.50
2019-04-21T15:18:39.056Z,42.30
2019-04-21T15:24:42.556Z,42.40
2019-04-21T15:30:46.954Z,42.40
2019-04-21T15:36:50.313Z,42.20
2019-04-21T15:42:54.597Z,42.20
2019-04-21T15:48:57.503Z,41.90
2019-04-21T15:55:00.878Z,41.90
2019-04-21T16:01:04.766Z,41.60
2019-04-21T16:07:07.798Z,41.90
2019-04-21T16:13:11.813Z,42.10
2019-04-21T16:19:14.655Z,42.00
2019-04-21T16:25:18.763Z,42.00
2019-04-21T16:31:22.531Z,42.00
2019-04-21T16:37:25.689Z,42.10
2019-04-21T16:43:29.115Z,42.10
2019-04-21T16:49:33.581Z,42.10
2019-04-21T16:55:37.136Z,42.10
2019-04-21T17:01:40.660Z,42.20
2019-04-21T17:07:44.984Z,42.20
2019-04-21T17:13:47.820Z,42.20
2019-04-21T17:19:54.069Z,42.30
2019-04-21T17:25:55.223Z,42.20
2019-04-21T17:31:59.351Z,42.10
2019-04-21T17:38:03.889Z,41.80
2019-04-21T17:44:06.839Z,41.80
2019-04-21T17:50:09.574Z,41.90
2019-04-21T17:56:41.385Z,42.00
2019-04-21T18:02:46.063Z,42.10
2019-04-21T18:08:44.885Z,42.00
2019-04-21T18:14:26.433Z,42.10
2019-04-21T18:20:30.101Z,42.00
2019-04-21T18:26:40.576Z,42.00
2019-04-21T18:32:39.732Z,42.10
2019-04-21T18:39:01.160Z,42.00
2019-04-21T18:45:29.172Z,42.00
2019-04-21T18:50:57.299Z,42.00
2019-04-21T18:57:07.228Z,42.00
2019-04-21T19:03:01.383Z,42.10
2019-04-21T19:09:30.859Z,42.30
2019-04-21T19:15:28.134Z,42.30
2019-04-21T19:21:31.105Z,42.30
2019-04-21T19:27:47.324Z,42.30
2019-04-21T19:33:36.502Z,42.30
2019-04-21T19:39:42.737Z,42.20
2019-04-21T19:45:46.055Z,42.20
2019-04-21T19:51:50.420Z,42.20
2019-04-21T19:57:43.174Z,42.20
2019-04-21T20:03:49.882Z,42.20
2019-04-21T20:10:18.700Z,42.20
2019-04-21T20:16:12.901Z,42.10
2019-04-21T20:22:00.930Z,42.10
2019-04-21T20:28:15.054Z,42.00
2019-04-21T20:34:26.915Z,42.00
2019-04-21T20:40:25.364Z,42.00
2019-04-21T20:46:35.079Z,42.10
2019-04-21T20:52:45.655Z,42.20
2019-04-21T20:58:46.256Z,42.20
2019-04-21T21:04:45.199Z,42.20
2019-04-21T21:10:50.089Z,42.20
2019-04-21T21:17:30.326Z,42.20
2019-04-21T21:23:01.011Z,42.20
2019-04-21T21:28:57.433Z,42.30
2019-04-21T21:35:13.744Z,42.30
2019-04-21T21:41:11.926Z,42.20
2019-04-21T21:47:17.172Z,42.20
2019-04-21T21:53:14.513Z,42.20
2019-04-21T21:59:20.145Z,42.20
2019-04-21T22:05:24.316Z,42.10
2019-04-21T22:11:24.154Z,42.10
2019-04-21T22:17:38.922Z,42.10
2019-04-21T22:23:39.860Z,42.10
2019-04-21T22:29:41.712Z,42.00
2019-04-21T22:35:46.330Z,42.20
2019-04-21T22:41:48.442Z,42.10
2019-04-21T22:47:49.558Z,42.00
2019-04-21T22:53:55.748Z,42.60
2019-04-21T23:00:01.032Z,42.10
2019-04-21T23:06:09.751Z,42.00
2019-04-21T23:12:05.784Z,42.00
2019-04-21T23:18:25.995Z,42.10
2019-04-21T23:24:38.425Z,42.00
2019-04-21T23:30:39.192Z,42.00
2019-04-21T23:36:26.223Z,41.90
2019-04-21T23:42:31.761Z,41.80
2019-04-21T23:48:42.440Z,41.90
2019-04-21T23:54:35.580Z,42.00
